sensor_id;sensor_type;location;lat;lon;timestamp;temperature;humidity
16154;DHT22;8182;55.648;13.208;2024-02-14T00:00:06;4.80;1.00
16154;DHT22;8182;55.648;13.208;2024-02-14T00:02:35;4.80;1.00
16154;DHT22;8182;55.648;13.208;2024-02-14T00:05:03;4.80;1.00
16154;DHT22;8182;55.648;13.208;2024-02-14T00:07:30;4.80;1.00
16154;DHT22;8182;55.648;13.208;2024-02-14T00:09:57;4.90;1.00
16154;DHT22;8182;55.648;13.208;2024-02-14T00:12:23;4.90;1.00
16154;DHT22;8182;55.648;13.208;2024-02-14T00:14:51;4.90;1.00
16154;DHT22;8182;55.648;13.208;2024-02-14T00:17:19;4.80;1.00
16154;DHT22;8182;55.648;13.208;2024-02-14T00:19:47;4.80;1.00
16154;DHT22;8182;55.648;13.208;2024-02-14T00:22:14;4.80;1.00
16154;DHT22;8182;55.648;13.208;2024-02-14T00:24:42;4.80;1.00
16154;DHT22;8182;55.648;13.208;2024-02-14T00:27:09;4.80;1.00
16154;DHT22;8182;55.648;13.208;2024-02-14T00:29:36;4.90;1.00
16154;DHT22;8182;55.648;13.208;2024-02-14T00:32:03;4.90;1.00
16154;DHT22;8182;55.648;13.208;2024-02-14T00:34:32;4.90;1.00
16154;DHT22;8182;55.648;13.208;2024-02-14T00:36:59;4.80;1.00
16154;DHT22;8182;55.648;13.208;2024-02-14T00:39:26;4.80;1.00
16154;DHT22;8182;55.648;13.208;2024-02-14T00:41:53;4.80;1.00
16154;DHT22;8182;55.648;13.208;2024-02-14T00:44:20;4.80;1.00
16154;DHT22;8182;55.648;13.208;2024-02-14T00:46:47;4.80;1.00
16154;DHT22;8182;55.648;13.208;2024-02-14T00:49:14;4.80;1.00
16154;DHT22;8182;55.648;13.208;2024-02-14T00:51:43;4.70;1.00
16154;DHT22;8182;55.648;13.208;2024-02-14T00:54:10;4.70;1.00
16154;DHT22;8182;55.648;13.208;2024-02-14T00:56:37;4.80;1.00
16154;DHT22;8182;55.648;13.208;2024-02-14T00:59:03;4.80;1.00
16154;DHT22;8182;55.648;13.208;2024-02-14T01:01:31;4.80;1.00
16154;DHT22;8182;55.648;13.208;2024-02-14T01:03:58;4.70;1.00
16154;DHT22;8182;55.648;13.208;2024-02-14T01:06:30;4.70;1.00
16154;DHT22;8182;55.648;13.208;2024-02-14T01:08:58;4.70;1.00
16154;DHT22;8182;55.648;13.208;2024-02-14T01:11:25;4.80;1.00
16154;DHT22;8182;55.648;13.208;2024-02-14T01:13:52;4.80;1.00
16154;DHT22;8182;55.648;13.208;2024-02-14T01:16:19;4.70;1.00
16154;DHT22;8182;55.648;13.208;2024-02-14T01:18:45;4.70;1.00
16154;DHT22;8182;55.648;13.208;2024-02-14T01:21:13;4.70;1.00
16154;DHT22;8182;55.648;13.208;2024-02-14T01:23:40;4.80;1.00
16154;DHT22;8182;55.648;13.208;2024-02-14T01:26:08;4.80;1.00
16154;DHT22;8182;55.648;13.208;2024-02-14T01:28:35;4.90;1.00
16154;DHT22;8182;55.648;13.208;2024-02-14T01:31:02;4.90;1.00
16154;DHT22;8182;55.648;13.208;2024-02-14T01:33:28;4.90;1.00
16154;DHT22;8182;55.648;13.208;2024-02-14T01:35:56;4.80;1.00
16154;DHT22;8182;55.648;13.208;2024-02-14T01:38:23;4.80;1.00
16154;DHT22;8182;55.648;13.208;2024-02-14T01:40:50;4.80;1.00
16154;DHT22;8182;55.648;13.208;2024-02-14T01:43:19;4.80;1.00
16154;DHT22;8182;55.648;13.208;2024-02-14T01:45:46;4.70;1.00
16154;DHT22;8182;55.648;13.208;2024-02-14T01:48:14;4.70;1.00
16154;DHT22;8182;55.648;13.208;2024-02-14T01:50:44;4.90;1.00
16154;DHT22;8182;55.648;13.208;2024-02-14T01:53:11;4.80;1.00
16154;DHT22;8182;55.648;13.208;2024-02-14T01:55:39;4.80;1.00
16154;DHT22;8182;55.648;13.208;2024-02-14T01:58:06;4.80;1.00
16154;DHT22;8182;55.648;13.208;2024-02-14T02:00:36;4.80;1.00
16154;DHT22;8182;55.648;13.208;2024-02-14T02:03:04;4.90;1.00
16154;DHT22;8182;55.648;13.208;2024-02-14T02:05:30;4.90;1.00
16154;DHT22;8182;55.648;13.208;2024-02-14T02:07:59;4.90;1.00
16154;DHT22;8182;55.648;13.208;2024-02-14T02:10:26;4.90;1.00
16154;DHT22;8182;55.648;13.208;2024-02-14T02:12:58;4.90;1.00
16154;DHT22;8182;55.648;13.208;2024-02-14T02:15:25;4.90;1.00
16154;DHT22;8182;55.648;13.208;2024-02-14T02:17:54;4.90;1.00
16154;DHT22;8182;55.648;13.208;2024-02-14T02:20:22;5.00;1.00
16154;DHT22;8182;55.648;13.208;2024-02-14T02:22:52;5.00;1.00
16154;DHT22;8182;55.648;13.208;2024-02-14T02:25:19;4.90;1.00
16154;DHT22;8182;55.648;13.208;2024-02-14T02:27:50;4.90;1.00
16154;DHT22;8182;55.648;13.208;2024-02-14T02:30:17;4.90;1.00
16154;DHT22;8182;55.648;13.208;2024-02-14T02:32:44;4.90;1.00
16154;DHT22;8182;55.648;13.208;2024-02-14T02:35:10;4.90;1.00
16154;DHT22;8182;55.648;13.208;2024-02-14T02:37:37;4.90;1.00
16154;DHT22;8182;55.648;13.208;2024-02-14T02:40:07;4.90;1.00
16154;DHT22;8182;55.648;13.208;2024-02-14T02:42:36;4.90;1.00
16154;DHT22;8182;55.648;13.208;2024-02-14T02:45:03;4.80;1.00
16154;DHT22;8182;55.648;13.208;2024-02-14T02:47:31;4.80;1.00
16154;DHT22;8182;55.648;13.208;2024-02-14T02:49:58;4.80;1.00
16154;DHT22;8182;55.648;13.208;2024-02-14T02:52:29;4.80;1.00
16154;DHT22;8182;55.648;13.208;2024-02-14T02:54:56;4.80;1.00
16154;DHT22;8182;55.648;13.208;2024-02-14T02:57:24;4.90;1.00
16154;DHT22;8182;55.648;13.208;2024-02-14T02:59:52;4.80;1.00
16154;DHT22;8182;55.648;13.208;2024-02-14T03:02:19;4.80;1.00
16154;DHT22;8182;55.648;13.208;2024-02-14T03:04:46;4.80;1.00
16154;DHT22;8182;55.648;13.208;2024-02-14T03:07:13;4.80;1.00
16154;DHT22;8182;55.648;13.208;2024-02-14T03:09:40;4.80;1.00
16154;DHT22;8182;55.648;13.208;2024-02-14T03:12:07;4.80;1.00
16154;DHT22;8182;55.648;13.208;2024-02-14T03:14:37;4.70;1.00
16154;DHT22;8182;55.648;13.208;2024-02-14T03:17:05;4.70;1.00
16154;DHT22;8182;55.648;13.208;2024-02-14T03:19:35;4.70;1.00
16154;DHT22;8182;55.648;13.208;2024-02-14T03:22:04;4.60;1.00
16154;DHT22;8182;55.648;13.208;2024-02-14T03:24:36;4.70;1.00
16154;DHT22;8182;55.648;13.208;2024-02-14T03:27:04;4.60;1.00
16154;DHT22;8182;55.648;13.208;2024-02-14T03:29:31;4.60;1.00
16154;DHT22;8182;55.648;13.208;2024-02-14T03:32:00;4.60;1.00
16154;DHT22;8182;55.648;13.208;2024-02-14T03:34:30;4.70;1.00
16154;DHT22;8182;55.648;13.208;2024-02-14T03:36:59;4.70;1.00
16154;DHT22;8182;55.648;13.208;2024-02-14T03:39:27;4.70;1.00
16154;DHT22;8182;55.648;13.208;2024-02-14T03:41:54;4.70;1.00
16154;DHT22;8182;55.648;13.208;2024-02-14T03:44:21;4.70;1.00
16154;DHT22;8182;55.648;13.208;2024-02-14T03:46:48;4.70;1.00
16154;DHT22;8182;55.648;13.208;2024-02-14T03:49:17;4.70;1.00
16154;DHT22;8182;55.648;13.208;2024-02-14T03:51:45;4.70;1.00
16154;DHT22;8182;55.648;13.208;2024-02-14T03:54:12;4.60;1.00
16154;DHT22;8182;55.648;13.208;2024-02-14T03:56:39;4.60;1.00
16154;DHT22;8182;55.648;13.208;2024-02-14T03:59:07;4.60;1.00
16154;DHT22;8182;55.648;13.208;2024-02-14T04:01:34;4.60;1.00
16154;DHT22;8182;55.648;13.208;2024-02-14T04:04:01;4.60;1.00
16154;DHT22;8182;55.648;13.208;2024-02-14T04:06:29;4.60;1.00
16154;DHT22;8182;55.648;13.208;2024-02-14T04:08:58;4.60;1.00
16154;DHT22;8182;55.648;13.208;2024-02-14T04:11:25;4.60;1.00
16154;DHT22;8182;55.648;13.208;2024-02-14T04:13:52;4.60;1.00
16154;DHT22;8182;55.648;13.208;2024-02-14T04:16:19;4.60;1.00
16154;DHT22;8182;55.648;13.208;2024-02-14T04:18:47;4.60;1.00
16154;DHT22;8182;55.648;13.208;2024-02-14T04:21:14;4.60;1.00
16154;DHT22;8182;55.648;13.208;2024-02-14T04:23:44;4.60;1.00
16154;DHT22;8182;55.648;13.208;2024-02-14T04:26:19;4.60;1.00
16154;DHT22;8182;55.648;13.208;2024-02-14T04:28:45;4.60;1.00
16154;DHT22;8182;55.648;13.208;2024-02-14T04:31:13;4.70;1.00
16154;DHT22;8182;55.648;13.208;2024-02-14T04:33:39;4.70;1.00
16154;DHT22;8182;55.648;13.208;2024-02-14T04:36:07;4.60;1.00
16154;DHT22;8182;55.648;13.208;2024-02-14T04:38:38;4.60;1.00
16154;DHT22;8182;55.648;13.208;2024-02-14T04:41:07;4.60;1.00
16154;DHT22;8182;55.648;13.208;2024-02-14T04:43:35;4.60;1.00
16154;DHT22;8182;55.648;13.208;2024-02-14T04:46:03;4.60;1.00
16154;DHT22;8182;55.648;13.208;2024-02-14T04:48:32;4.60;1.00
16154;DHT22;8182;55.648;13.208;2024-02-14T04:50:59;4.70;1.00
16154;DHT22;8182;55.648;13.208;2024-02-14T04:53:26;4.70;1.00
16154;DHT22;8182;55.648;13.208;2024-02-14T04:55:53;4.70;1.00
16154;DHT22;8182;55.648;13.208;2024-02-14T04:58:21;4.70;1.00
16154;DHT22;8182;55.648;13.208;2024-02-14T05:00:48;4.70;1.00
16154;DHT22;8182;55.648;13.208;2024-02-14T05:03:15;4.70;1.00
16154;DHT22;8182;55.648;13.208;2024-02-14T05:05:43;4.60;1.00
16154;DHT22;8182;55.648;13.208;2024-02-14T05:08:10;4.60;1.00
16154;DHT22;8182;55.648;13.208;2024-02-14T05:10:38;4.60;1.00
16154;DHT22;8182;55.648;13.208;2024-02-14T05:13:06;4.60;1.00
16154;DHT22;8182;55.648;13.208;2024-02-14T05:15:34;4.70;1.00
16154;DHT22;8182;55.648;13.208;2024-02-14T05:18:01;4.70;1.00
16154;DHT22;8182;55.648;13.208;2024-02-14T05:20:28;4.60;1.00
16154;DHT22;8182;55.648;13.208;2024-02-14T05:22:55;4.60;1.00
16154;DHT22;8182;55.648;13.208;2024-02-14T05:25:21;4.60;1.00
16154;DHT22;8182;55.648;13.208;2024-02-14T05:27:48;4.60;1.00
16154;DHT22;8182;55.648;13.208;2024-02-14T05:30:15;4.60;1.00
16154;DHT22;8182;55.648;13.208;2024-02-14T05:32:44;4.70;1.00
16154;DHT22;8182;55.648;13.208;2024-02-14T05:35:11;4.60;1.00
16154;DHT22;8182;55.648;13.208;2024-02-14T05:37:38;4.70;1.00
16154;DHT22;8182;55.648;13.208;2024-02-14T05:40:06;4.70;1.00
16154;DHT22;8182;55.648;13.208;2024-02-14T05:42:33;4.70;1.00
16154;DHT22;8182;55.648;13.208;2024-02-14T05:45:00;4.70;1.00
16154;DHT22;8182;55.648;13.208;2024-02-14T05:47:29;4.70;1.00
16154;DHT22;8182;55.648;13.208;2024-02-14T05:49:58;4.70;1.00
16154;DHT22;8182;55.648;13.208;2024-02-14T05:52:26;4.70;1.00
16154;DHT22;8182;55.648;13.208;2024-02-14T05:54:56;4.80;1.00
16154;DHT22;8182;55.648;13.208;2024-02-14T05:57:23;4.70;1.00
16154;DHT22;8182;55.648;13.208;2024-02-14T05:59:49;4.60;1.00
16154;DHT22;8182;55.648;13.208;2024-02-14T06:02:16;4.70;1.00
16154;DHT22;8182;55.648;13.208;2024-02-14T06:04:43;4.70;1.00
16154;DHT22;8182;55.648;13.208;2024-02-14T06:07:12;4.70;1.00
16154;DHT22;8182;55.648;13.208;2024-02-14T06:09:39;4.70;1.00
16154;DHT22;8182;55.648;13.208;2024-02-14T06:12:06;4.70;1.00
16154;DHT22;8182;55.648;13.208;2024-02-14T06:14:33;4.80;1.00
16154;DHT22;8182;55.648;13.208;2024-02-14T06:17:01;4.70;1.00
16154;DHT22;8182;55.648;13.208;2024-02-14T06:19:27;4.70;1.00
16154;DHT22;8182;55.648;13.208;2024-02-14T06:21:55;4.70;1.00
16154;DHT22;8182;55.648;13.208;2024-02-14T06:24:23;4.70;1.00
16154;DHT22;8182;55.648;13.208;2024-02-14T06:26:50;4.70;1.00
16154;DHT22;8182;55.648;13.208;2024-02-14T06:29:17;4.70;1.00
16154;DHT22;8182;55.648;13.208;2024-02-14T06:31:44;4.70;1.00
16154;DHT22;8182;55.648;13.208;2024-02-14T06:34:11;4.70;1.00
16154;DHT22;8182;55.648;13.208;2024-02-14T06:36:38;4.70;1.00
16154;DHT22;8182;55.648;13.208;2024-02-14T06:39:07;4.60;1.00
16154;DHT22;8182;55.648;13.208;2024-02-14T06:41:35;4.70;1.00
16154;DHT22;8182;55.648;13.208;2024-02-14T06:44:02;4.70;1.00
16154;DHT22;8182;55.648;13.208;2024-02-14T06:46:30;4.70;1.00
16154;DHT22;8182;55.648;13.208;2024-02-14T06:48:57;4.70;1.00
16154;DHT22;8182;55.648;13.208;2024-02-14T06:51:24;4.70;1.00
16154;DHT22;8182;55.648;13.208;2024-02-14T06:53:51;4.70;1.00
16154;DHT22;8182;55.648;13.208;2024-02-14T06:56:18;4.70;1.00
16154;DHT22;8182;55.648;13.208;2024-02-14T06:58:46;4.70;1.00
16154;DHT22;8182;55.648;13.208;2024-02-14T07:01:18;4.70;1.00
16154;DHT22;8182;55.648;13.208;2024-02-14T07:03:47;4.60;1.00
16154;DHT22;8182;55.648;13.208;2024-02-14T07:06:15;4.70;1.00
16154;DHT22;8182;55.648;13.208;2024-02-14T07:08:44;4.60;1.00
16154;DHT22;8182;55.648;13.208;2024-02-14T07:11:13;4.50;1.00
16154;DHT22;8182;55.648;13.208;2024-02-14T07:13:41;4.60;1.00
16154;DHT22;8182;55.648;13.208;2024-02-14T07:16:09;4.60;1.00
16154;DHT22;8182;55.648;13.208;2024-02-14T07:18:36;4.60;1.00
16154;DHT22;8182;55.648;13.208;2024-02-14T07:21:03;4.70;1.00
16154;DHT22;8182;55.648;13.208;2024-02-14T07:23:31;4.70;1.00
16154;DHT22;8182;55.648;13.208;2024-02-14T07:25:58;4.70;1.00
16154;DHT22;8182;55.648;13.208;2024-02-14T07:28:26;4.80;1.00
16154;DHT22;8182;55.648;13.208;2024-02-14T07:30:53;4.80;1.00
16154;DHT22;8182;55.648;13.208;2024-02-14T07:33:21;4.80;1.00
16154;DHT22;8182;55.648;13.208;2024-02-14T07:35:49;4.80;1.00
16154;DHT22;8182;55.648;13.208;2024-02-14T07:38:16;4.80;1.00
16154;DHT22;8182;55.648;13.208;2024-02-14T07:40:43;4.80;1.00
16154;DHT22;8182;55.648;13.208;2024-02-14T07:43:10;4.80;1.00
16154;DHT22;8182;55.648;13.208;2024-02-14T07:45:37;4.90;1.00
16154;DHT22;8182;55.648;13.208;2024-02-14T07:48:05;4.90;1.00
16154;DHT22;8182;55.648;13.208;2024-02-14T07:50:33;4.90;1.00
16154;DHT22;8182;55.648;13.208;2024-02-14T07:53:01;5.00;1.00
16154;DHT22;8182;55.648;13.208;2024-02-14T07:55:28;5.00;1.00
16154;DHT22;8182;55.648;13.208;2024-02-14T07:57:55;5.10;1.00
16154;DHT22;8182;55.648;13.208;2024-02-14T08:00:21;5.10;1.00
16154;DHT22;8182;55.648;13.208;2024-02-14T08:02:49;5.10;1.00
16154;DHT22;8182;55.648;13.208;2024-02-14T08:05:16;5.00;1.00
16154;DHT22;8182;55.648;13.208;2024-02-14T08:07:45;5.10;1.00
16154;DHT22;8182;55.648;13.208;2024-02-14T08:10:15;5.10;1.00
16154;DHT22;8182;55.648;13.208;2024-02-14T08:12:45;5.20;1.00
16154;DHT22;8182;55.648;13.208;2024-02-14T08:15:13;5.20;1.00
16154;DHT22;8182;55.648;13.208;2024-02-14T08:17:40;5.20;1.00
16154;DHT22;8182;55.648;13.208;2024-02-14T08:20:08;5.20;1.00
16154;DHT22;8182;55.648;13.208;2024-02-14T08:22:35;5.20;1.00
16154;DHT22;8182;55.648;13.208;2024-02-14T08:25:05;5.20;1.00
16154;DHT22;8182;55.648;13.208;2024-02-14T08:27:32;5.20;1.00
16154;DHT22;8182;55.648;13.208;2024-02-14T08:30:04;5.20;1.00
16154;DHT22;8182;55.648;13.208;2024-02-14T08:32:33;5.20;1.00
16154;DHT22;8182;55.648;13.208;2024-02-14T08:35:00;5.20;1.00
16154;DHT22;8182;55.648;13.208;2024-02-14T08:37:27;5.20;1.00
16154;DHT22;8182;55.648;13.208;2024-02-14T08:39:54;5.20;1.00
16154;DHT22;8182;55.648;13.208;2024-02-14T08:42:22;5.30;1.00
16154;DHT22;8182;55.648;13.208;2024-02-14T08:44:49;5.30;1.00
16154;DHT22;8182;55.648;13.208;2024-02-14T08:47:16;5.30;1.00
16154;DHT22;8182;55.648;13.208;2024-02-14T08:49:43;5.30;1.00
16154;DHT22;8182;55.648;13.208;2024-02-14T08:52:10;5.30;1.00
16154;DHT22;8182;55.648;13.208;2024-02-14T08:54:37;5.30;1.00
16154;DHT22;8182;55.648;13.208;2024-02-14T08:57:04;5.30;1.00
16154;DHT22;8182;55.648;13.208;2024-02-14T08:59:32;5.30;1.00
16154;DHT22;8182;55.648;13.208;2024-02-14T09:01:59;5.30;1.00
16154;DHT22;8182;55.648;13.208;2024-02-14T09:04:27;5.20;1.00
16154;DHT22;8182;55.648;13.208;2024-02-14T09:06:54;5.30;1.00
16154;DHT22;8182;55.648;13.208;2024-02-14T09:09:21;5.30;1.00
16154;DHT22;8182;55.648;13.208;2024-02-14T09:11:48;5.40;1.00
16154;DHT22;8182;55.648;13.208;2024-02-14T09:14:16;5.50;1.00
16154;DHT22;8182;55.648;13.208;2024-02-14T09:16:44;5.60;1.00
16154;DHT22;8182;55.648;13.208;2024-02-14T09:19:12;5.60;1.00
16154;DHT22;8182;55.648;13.208;2024-02-14T09:21:38;5.50;1.00
16154;DHT22;8182;55.648;13.208;2024-02-14T09:24:06;5.50;1.00
16154;DHT22;8182;55.648;13.208;2024-02-14T09:26:32;5.50;1.00
16154;DHT22;8182;55.648;13.208;2024-02-14T09:28:59;5.50;1.00
16154;DHT22;8182;55.648;13.208;2024-02-14T09:31:26;5.40;1.00
16154;DHT22;8182;55.648;13.208;2024-02-14T09:33:54;5.40;1.00
16154;DHT22;8182;55.648;13.208;2024-02-14T09:36:23;5.40;1.00
16154;DHT22;8182;55.648;13.208;2024-02-14T09:38:51;5.40;1.00
16154;DHT22;8182;55.648;13.208;2024-02-14T09:41:22;5.50;1.00
16154;DHT22;8182;55.648;13.208;2024-02-14T09:43:49;5.50;1.00
16154;DHT22;8182;55.648;13.208;2024-02-14T09:46:16;5.60;1.00
16154;DHT22;8182;55.648;13.208;2024-02-14T09:48:44;5.50;1.00
16154;DHT22;8182;55.648;13.208;2024-02-14T09:51:13;5.50;1.00
16154;DHT22;8182;55.648;13.208;2024-02-14T09:53:41;5.40;1.00
16154;DHT22;8182;55.648;13.208;2024-02-14T09:56:10;5.40;1.00
16154;DHT22;8182;55.648;13.208;2024-02-14T09:58:40;5.40;1.00
16154;DHT22;8182;55.648;13.208;2024-02-14T10:01:07;5.40;1.00
16154;DHT22;8182;55.648;13.208;2024-02-14T10:03:34;5.40;1.00
16154;DHT22;8182;55.648;13.208;2024-02-14T10:06:02;5.40;1.00
16154;DHT22;8182;55.648;13.208;2024-02-14T10:08:31;5.50;1.00
16154;DHT22;8182;55.648;13.208;2024-02-14T10:10:58;5.50;1.00
16154;DHT22;8182;55.648;13.208;2024-02-14T10:13:27;5.50;1.00
16154;DHT22;8182;55.648;13.208;2024-02-14T10:15:55;5.60;1.00
16154;DHT22;8182;55.648;13.208;2024-02-14T10:18:22;5.60;1.00
16154;DHT22;8182;55.648;13.208;2024-02-14T10:20:54;5.70;1.00
16154;DHT22;8182;55.648;13.208;2024-02-14T10:23:21;6.00;1.00
16154;DHT22;8182;55.648;13.208;2024-02-14T10:25:50;6.30;1.00
16154;DHT22;8182;55.648;13.208;2024-02-14T10:28:17;7.10;1.00
16154;DHT22;8182;55.648;13.208;2024-02-14T10:30:45;7.70;1.00
16154;DHT22;8182;55.648;13.208;2024-02-14T10:33:13;7.70;1.00
16154;DHT22;8182;55.648;13.208;2024-02-14T10:35:42;7.60;1.00
16154;DHT22;8182;55.648;13.208;2024-02-14T10:38:12;7.10;1.00
16154;DHT22;8182;55.648;13.208;2024-02-14T10:40:39;6.70;1.00
16154;DHT22;8182;55.648;13.208;2024-02-14T10:43:07;6.70;1.00
16154;DHT22;8182;55.648;13.208;2024-02-14T10:45:35;6.60;1.00
16154;DHT22;8182;55.648;13.208;2024-02-14T10:48:04;6.40;1.00
16154;DHT22;8182;55.648;13.208;2024-02-14T10:50:33;6.40;1.00
16154;DHT22;8182;55.648;13.208;2024-02-14T10:53:04;6.30;1.00
16154;DHT22;8182;55.648;13.208;2024-02-14T10:55:33;6.20;1.00
16154;DHT22;8182;55.648;13.208;2024-02-14T10:58:00;6.30;1.00
16154;DHT22;8182;55.648;13.208;2024-02-14T11:00:29;6.50;1.00
16154;DHT22;8182;55.648;13.208;2024-02-14T11:02:58;6.60;1.00
16154;DHT22;8182;55.648;13.208;2024-02-14T11:05:26;6.80;1.00
16154;DHT22;8182;55.648;13.208;2024-02-14T11:07:53;6.70;1.00
16154;DHT22;8182;55.648;13.208;2024-02-14T11:10:22;7.20;1.00
16154;DHT22;8182;55.648;13.208;2024-02-14T11:12:49;7.30;1.00
16154;DHT22;8182;55.648;13.208;2024-02-14T11:15:18;7.00;1.00
16154;DHT22;8182;55.648;13.208;2024-02-14T11:17:47;6.70;1.00
16154;DHT22;8182;55.648;13.208;2024-02-14T11:20:18;6.80;1.00
16154;DHT22;8182;55.648;13.208;2024-02-14T11:22:56;6.80;1.00
16154;DHT22;8182;55.648;13.208;2024-02-14T11:25:28;6.80;1.00
16154;DHT22;8182;55.648;13.208;2024-02-14T11:27:56;6.80;1.00
16154;DHT22;8182;55.648;13.208;2024-02-14T11:30:30;6.70;1.00
16154;DHT22;8182;55.648;13.208;2024-02-14T11:33:15;6.60;1.00
16154;DHT22;8182;55.648;13.208;2024-02-14T11:35:44;6.70;1.00
16154;DHT22;8182;55.648;13.208;2024-02-14T11:38:11;6.70;1.00
16154;DHT22;8182;55.648;13.208;2024-02-14T11:40:39;6.60;1.00
16154;DHT22;8182;55.648;13.208;2024-02-14T11:43:10;6.60;1.00
16154;DHT22;8182;55.648;13.208;2024-02-14T11:45:38;6.60;1.00
16154;DHT22;8182;55.648;13.208;2024-02-14T11:48:08;6.60;1.00
16154;DHT22;8182;55.648;13.208;2024-02-14T11:50:38;6.60;1.00
16154;DHT22;8182;55.648;13.208;2024-02-14T11:53:05;6.60;1.00
16154;DHT22;8182;55.648;13.208;2024-02-14T11:55:40;6.70;1.00
16154;DHT22;8182;55.648;13.208;2024-02-14T11:58:10;6.70;1.00
16154;DHT22;8182;55.648;13.208;2024-02-14T12:00:37;6.70;1.00
16154;DHT22;8182;55.648;13.208;2024-02-14T12:03:07;6.80;1.00
16154;DHT22;8182;55.648;13.208;2024-02-14T12:05:38;6.70;1.00
16154;DHT22;8182;55.648;13.208;2024-02-14T12:08:07;6.80;1.00
16154;DHT22;8182;55.648;13.208;2024-02-14T12:10:35;6.80;1.00
16154;DHT22;8182;55.648;13.208;2024-02-14T12:13:06;6.80;1.00
16154;DHT22;8182;55.648;13.208;2024-02-14T12:15:38;6.80;1.00
16154;DHT22;8182;55.648;13.208;2024-02-14T12:18:08;6.90;1.00
16154;DHT22;8182;55.648;13.208;2024-02-14T12:20:37;7.00;1.00
16154;DHT22;8182;55.648;13.208;2024-02-14T12:23:05;7.00;1.00
16154;DHT22;8182;55.648;13.208;2024-02-14T12:25:32;6.90;1.00
16154;DHT22;8182;55.648;13.208;2024-02-14T12:27:59;7.00;1.00
16154;DHT22;8182;55.648;13.208;2024-02-14T12:30:42;7.10;1.00
16154;DHT22;8182;55.648;13.208;2024-02-14T12:33:11;7.10;1.00
16154;DHT22;8182;55.648;13.208;2024-02-14T12:35:44;7.10;1.00
16154;DHT22;8182;55.648;13.208;2024-02-14T12:38:12;7.10;1.00
16154;DHT22;8182;55.648;13.208;2024-02-14T12:40:42;7.00;1.00
16154;DHT22;8182;55.648;13.208;2024-02-14T12:43:10;6.90;1.00
16154;DHT22;8182;55.648;13.208;2024-02-14T12:45:37;6.80;1.00
16154;DHT22;8182;55.648;13.208;2024-02-14T12:48:22;6.80;1.00
16154;DHT22;8182;55.648;13.208;2024-02-14T12:50:49;6.70;1.00
16154;DHT22;8182;55.648;13.208;2024-02-14T12:53:17;6.70;1.00
16154;DHT22;8182;55.648;13.208;2024-02-14T12:55:45;6.80;1.00
16154;DHT22;8182;55.648;13.208;2024-02-14T12:58:13;6.90;1.00
16154;DHT22;8182;55.648;13.208;2024-02-14T13:00:40;6.90;1.00
16154;DHT22;8182;55.648;13.208;2024-02-14T13:03:08;6.80;1.00
16154;DHT22;8182;55.648;13.208;2024-02-14T13:05:39;6.70;1.00
16154;DHT22;8182;55.648;13.208;2024-02-14T13:08:07;6.80;1.00
16154;DHT22;8182;55.648;13.208;2024-02-14T13:10:36;6.70;1.00
16154;DHT22;8182;55.648;13.208;2024-02-14T13:13:03;6.70;1.00
16154;DHT22;8182;55.648;13.208;2024-02-14T13:15:31;6.70;1.00
16154;DHT22;8182;55.648;13.208;2024-02-14T13:17:57;6.70;1.00
16154;DHT22;8182;55.648;13.208;2024-02-14T13:20:25;6.80;1.00
16154;DHT22;8182;55.648;13.208;2024-02-14T13:22:55;6.70;1.00
16154;DHT22;8182;55.648;13.208;2024-02-14T13:25:21;6.80;1.00
16154;DHT22;8182;55.648;13.208;2024-02-14T13:27:48;6.80;1.00
16154;DHT22;8182;55.648;13.208;2024-02-14T13:30:15;6.70;1.00
16154;DHT22;8182;55.648;13.208;2024-02-14T13:32:44;6.60;1.00
16154;DHT22;8182;55.648;13.208;2024-02-14T13:35:11;6.60;1.00
16154;DHT22;8182;55.648;13.208;2024-02-14T13:37:39;6.60;1.00
16154;DHT22;8182;55.648;13.208;2024-02-14T13:40:09;6.60;1.00
16154;DHT22;8182;55.648;13.208;2024-02-14T13:42:36;6.60;1.00
16154;DHT22;8182;55.648;13.208;2024-02-14T13:45:04;6.60;1.00
16154;DHT22;8182;55.648;13.208;2024-02-14T13:47:35;6.60;1.00
16154;DHT22;8182;55.648;13.208;2024-02-14T13:50:04;6.60;1.00
16154;DHT22;8182;55.648;13.208;2024-02-14T13:52:31;6.50;1.00
16154;DHT22;8182;55.648;13.208;2024-02-14T13:54:58;6.60;1.00
16154;DHT22;8182;55.648;13.208;2024-02-14T13:57:29;6.60;1.00
16154;DHT22;8182;55.648;13.208;2024-02-14T13:59:56;6.70;1.00
16154;DHT22;8182;55.648;13.208;2024-02-14T14:02:23;6.60;1.00
16154;DHT22;8182;55.648;13.208;2024-02-14T14:04:50;6.50;1.00
16154;DHT22;8182;55.648;13.208;2024-02-14T14:07:18;6.50;1.00
16154;DHT22;8182;55.648;13.208;2024-02-14T14:09:45;6.60;1.00
16154;DHT22;8182;55.648;13.208;2024-02-14T14:12:13;6.60;1.00
16154;DHT22;8182;55.648;13.208;2024-02-14T14:14:41;6.50;1.00
16154;DHT22;8182;55.648;13.208;2024-02-14T14:17:10;6.40;1.00
16154;DHT22;8182;55.648;13.208;2024-02-14T14:19:37;6.40;1.00
16154;DHT22;8182;55.648;13.208;2024-02-14T14:22:05;6.40;1.00
16154;DHT22;8182;55.648;13.208;2024-02-14T14:24:31;6.30;1.00
16154;DHT22;8182;55.648;13.208;2024-02-14T14:26:58;6.30;1.00
16154;DHT22;8182;55.648;13.208;2024-02-14T14:29:26;6.30;1.00
16154;DHT22;8182;55.648;13.208;2024-02-14T14:31:55;6.30;1.00
16154;DHT22;8182;55.648;13.208;2024-02-14T14:34:22;6.20;1.00
16154;DHT22;8182;55.648;13.208;2024-02-14T14:36:49;6.20;1.00
16154;DHT22;8182;55.648;13.208;2024-02-14T14:39:16;6.20;1.00
16154;DHT22;8182;55.648;13.208;2024-02-14T14:41:43;6.20;1.00
16154;DHT22;8182;55.648;13.208;2024-02-14T14:44:10;6.20;1.00
16154;DHT22;8182;55.648;13.208;2024-02-14T14:46:37;6.30;1.00
16154;DHT22;8182;55.648;13.208;2024-02-14T14:49:09;6.20;1.00
16154;DHT22;8182;55.648;13.208;2024-02-14T14:51:36;6.10;1.00
16154;DHT22;8182;55.648;13.208;2024-02-14T14:54:03;6.20;1.00
16154;DHT22;8182;55.648;13.208;2024-02-14T14:56:30;6.20;1.00
16154;DHT22;8182;55.648;13.208;2024-02-14T14:58:57;6.20;1.00
16154;DHT22;8182;55.648;13.208;2024-02-14T15:01:28;6.20;1.00
16154;DHT22;8182;55.648;13.208;2024-02-14T15:03:55;6.20;1.00
16154;DHT22;8182;55.648;13.208;2024-02-14T15:06:23;6.10;1.00
16154;DHT22;8182;55.648;13.208;2024-02-14T15:08:50;6.10;1.00
16154;DHT22;8182;55.648;13.208;2024-02-14T15:11:17;6.10;1.00
16154;DHT22;8182;55.648;13.208;2024-02-14T15:13:46;6.10;1.00
16154;DHT22;8182;55.648;13.208;2024-02-14T15:16:13;6.00;1.00
16154;DHT22;8182;55.648;13.208;2024-02-14T15:18:40;6.00;1.00
16154;DHT22;8182;55.648;13.208;2024-02-14T15:21:08;5.90;1.00
16154;DHT22;8182;55.648;13.208;2024-02-14T15:23:37;5.90;1.00
16154;DHT22;8182;55.648;13.208;2024-02-14T15:26:04;5.80;1.00
16154;DHT22;8182;55.648;13.208;2024-02-14T15:28:32;5.80;1.00
16154;DHT22;8182;55.648;13.208;2024-02-14T15:31:05;5.70;1.00
16154;DHT22;8182;55.648;13.208;2024-02-14T15:33:50;5.70;1.00
16154;DHT22;8182;55.648;13.208;2024-02-14T15:36:17;5.70;1.00
16154;DHT22;8182;55.648;13.208;2024-02-14T15:38:45;5.60;1.00
16154;DHT22;8182;55.648;13.208;2024-02-14T15:41:12;5.60;1.00
16154;DHT22;8182;55.648;13.208;2024-02-14T15:43:40;5.60;1.00
16154;DHT22;8182;55.648;13.208;2024-02-14T15:46:10;5.50;1.00
16154;DHT22;8182;55.648;13.208;2024-02-14T15:48:37;5.50;1.00
16154;DHT22;8182;55.648;13.208;2024-02-14T15:51:04;5.40;1.00
16154;DHT22;8182;55.648;13.208;2024-02-14T15:53:36;5.40;1.00
16154;DHT22;8182;55.648;13.208;2024-02-14T15:56:05;5.40;1.00
16154;DHT22;8182;55.648;13.208;2024-02-14T15:58:34;5.40;1.00
16154;DHT22;8182;55.648;13.208;2024-02-14T16:01:01;5.40;1.00
16154;DHT22;8182;55.648;13.208;2024-02-14T16:03:28;5.30;1.00
16154;DHT22;8182;55.648;13.208;2024-02-14T16:05:55;5.40;1.00